sensor_id;sensor_type;location;lat;lon;timestamp;pressure;altitude;pressure_sealevel;temperature;humidity
45621;BME280;31345;51.522;10.702;2023-02-23T00:00:42;98696.75;;;5.42;100.00
45621;BME280;31345;51.522;10.702;2023-02-23T00:03:15;98701.28;;;5.39;100.00
45621;BME280;31345;51.522;10.702;2023-02-23T00:05:48;98704.63;;;5.41;100.00
45621;BME280;31345;51.522;10.702;2023-02-23T00:08:20;98696.41;;;5.66;100.00
45621;BME280;31345;51.522;10.702;2023-02-23T00:10:55;98697.03;;;5.71;100.00
45621;BME280;31345;51.522;10.702;2023-02-23T00:13:23;98693.16;;;5.62;100.00
45621;BME280;31345;51.522;10.702;2023-02-23T00:15:56;98692.47;;;5.59;100.00
45621;BME280;31345;51.522;10.702;2023-02-23T00:18:28;98689.25;;;5.71;100.00
45621;BME280;31345;51.522;10.702;2023-02-23T00:21:12;98686.16;;;5.81;100.00
45621;BME280;31345;51.522;10.702;2023-02-23T00:23:50;98690.13;;;5.70;100.00
45621;BME280;31345;51.522;10.702;2023-02-23T00:26:22;98697.31;;;5.83;100.00
45621;BME280;31345;51.522;10.702;2023-02-23T00:28:56;98690.13;;;5.70;100.00
45621;BME280;31345;51.522;10.702;2023-02-23T00:31:28;98691.13;;;5.85;100.00
45621;BME280;31345;51.522;10.702;2023-02-23T00:34:02;98698.53;;;5.75;100.00
45621;BME280;31345;51.522;10.702;2023-02-23T00:36:34;98691.75;;;5.73;100.00
45621;BME280;31345;51.522;10.702;2023-02-23T00:39:10;98684.81;;;5.73;100.00
45621;BME280;31345;51.522;10.702;2023-02-23T00:41:53;98689.09;;;5.91;100.00
45621;BME280;31345;51.522;10.702;2023-02-23T00:44:26;98694.59;;;5.84;100.00
45621;BME280;31345;51.522;10.702;2023-02-23T00:46:54;98693.78;;;5.84;100.00
45621;BME280;31345;51.522;10.702;2023-02-23T00:49:27;98700.06;;;5.80;100.00
45621;BME280;31345;51.522;10.702;2023-02-23T00:51:54;98697.63;;;5.76;100.00
45621;BME280;31345;51.522;10.702;2023-02-23T00:54:27;98699.19;;;5.63;100.00
45621;BME280;31345;51.522;10.702;2023-02-23T00:56:56;98704.09;;;5.85;100.00
45621;BME280;31345;51.522;10.702;2023-02-23T00:59:23;98701.28;;;5.72;100.00
45621;BME280;31345;51.522;10.702;2023-02-23T01:01:56;98696.56;;;5.97;100.00
45621;BME280;31345;51.522;10.702;2023-02-23T01:04:23;98698.91;;;5.85;100.00
45621;BME280;31345;51.522;10.702;2023-02-23T01:06:56;98701.78;;;5.97;100.00
45621;BME280;31345;51.522;10.702;2023-02-23T01:09:32;98693.28;;;5.93;100.00
45621;BME280;31345;51.522;10.702;2023-02-23T01:12:06;98695.94;;;5.75;100.00
45621;BME280;31345;51.522;10.702;2023-02-23T01:14:36;98696.94;;;5.73;100.00
45621;BME280;31345;51.522;10.702;2023-02-23T01:17:08;98704.69;;;5.91;100.00
45621;BME280;31345;51.522;10.702;2023-02-23T01:19:41;98700.88;;;5.80;100.00
45621;BME280;31345;51.522;10.702;2023-02-23T01:22:13;98698.19;;;5.82;100.00
45621;BME280;31345;51.522;10.702;2023-02-23T01:24:41;98698.34;;;5.62;100.00
45621;BME280;31345;51.522;10.702;2023-02-23T01:27:15;98696.97;;;5.55;100.00
45621;BME280;31345;51.522;10.702;2023-02-23T01:29:47;98695.88;;;5.43;100.00
45621;BME280;31345;51.522;10.702;2023-02-23T01:32:20;98693.22;;;5.61;100.00
45621;BME280;31345;51.522;10.702;2023-02-23T01:34:47;98683.50;;;5.82;100.00
45621;BME280;31345;51.522;10.702;2023-02-23T01:37:20;98690.06;;;5.72;100.00
45621;BME280;31345;51.522;10.702;2023-02-23T01:39:52;98679.63;;;5.73;100.00
45621;BME280;31345;51.522;10.702;2023-02-23T01:42:24;98685.22;;;5.82;100.00
45621;BME280;31345;51.522;10.702;2023-02-23T01:45:18;98682.63;;;5.66;100.00
45621;BME280;31345;51.522;10.702;2023-02-23T01:47:50;98683.69;;;5.61;100.00
45621;BME280;31345;51.522;10.702;2023-02-23T01:50:26;98688.47;;;5.69;100.00
45621;BME280;31345;51.522;10.702;2023-02-23T01:52:59;98681.13;;;5.44;100.00
45621;BME280;31345;51.522;10.702;2023-02-23T01:55:32;98679.09;;;5.33;100.00
45621;BME280;31345;51.522;10.702;2023-02-23T01:58:09;98677.72;;;5.43;100.00
45621;BME280;31345;51.522;10.702;2023-02-23T02:00:43;98679.53;;;5.59;100.00
45621;BME280;31345;51.522;10.702;2023-02-23T02:03:28;98677.91;;;5.56;100.00
45621;BME280;31345;51.522;10.702;2023-02-23T02:06:04;98681.31;;;5.41;100.00
45621;BME280;31345;51.522;10.702;2023-02-23T02:08:37;98682.69;;;5.30;100.00
45621;BME280;31345;51.522;10.702;2023-02-23T02:11:17;98675.19;;;5.42;100.00
45621;BME280;31345;51.522;10.702;2023-02-23T02:14:03;98683.00;;;5.58;100.00
45621;BME280;31345;51.522;10.702;2023-02-23T02:16:51;98674.00;;;5.65;100.00
45621;BME280;31345;51.522;10.702;2023-02-23T02:19:58;98679.47;;;5.76;100.00
45621;BME280;31345;51.522;10.702;2023-02-23T02:22:49;98677.16;;;5.54;100.00
45621;BME280;31345;51.522;10.702;2023-02-23T02:25:43;98685.81;;;5.71;100.00
45621;BME280;31345;51.522;10.702;2023-02-23T02:28:29;98683.94;;;5.57;100.00
45621;BME280;31345;51.522;10.702;2023-02-23T02:31:36;98691.91;;;5.36;100.00
45621;BME280;31345;51.522;10.702;2023-02-23T02:40:17;98694.97;;;5.27;100.00
45621;BME280;31345;51.522;10.702;2023-02-23T02:42:58;98689.16;;;5.21;100.00
45621;BME280;31345;51.522;10.702;2023-02-23T02:45:31;98690.31;;;5.16;100.00
45621;BME280;31345;51.522;10.702;2023-02-23T02:48:07;98682.59;;;5.32;100.00
45621;BME280;31345;51.522;10.702;2023-02-23T02:50:43;98687.94;;;5.29;100.00
45621;BME280;31345;51.522;10.702;2023-02-23T02:53:20;98687.63;;;5.17;100.00
45621;BME280;31345;51.522;10.702;2023-02-23T02:55:55;98686.25;;;5.10;100.00
45621;BME280;31345;51.522;10.702;2023-02-23T02:58:25;98677.72;;;5.26;100.00
45621;BME280;31345;51.522;10.702;2023-02-23T03:01:05;98676.19;;;5.39;100.00
45621;BME280;31345;51.522;10.702;2023-02-23T03:03:57;98680.59;;;5.55;100.00
45621;BME280;31345;51.522;10.702;2023-02-23T03:06:56;98678.16;;;5.34;100.00
45621;BME280;31345;51.522;10.702;2023-02-23T03:09:54;98678.94;;;5.36;100.00
45621;BME280;31345;51.522;10.702;2023-02-23T03:12:55;98688.16;;;5.42;100.00
45621;BME280;31345;51.522;10.702;2023-02-23T03:15:51;98685.50;;;5.43;100.00
45621;BME280;31345;51.522;10.702;2023-02-23T03:18:59;98686.72;;;5.36;100.00
45621;BME280;31345;51.522;10.702;2023-02-23T03:21:50;98686.84;;;5.50;100.00
45621;BME280;31345;51.522;10.702;2023-02-23T03:24:48;98687.38;;;5.57;100.00
45621;BME280;31345;51.522;10.702;2023-02-23T03:27:45;98688.25;;;5.56;100.00
45621;BME280;31345;51.522;10.702;2023-02-23T03:30:39;98689.53;;;5.49;100.00
45621;BME280;31345;51.522;10.702;2023-02-23T03:33:39;98694.88;;;5.46;100.00
45621;BME280;31345;51.522;10.702;2023-02-23T03:36:36;98688.38;;;5.55;100.00
45621;BME280;31345;51.522;10.702;2023-02-23T03:39:34;98690.16;;;5.36;100.00
45621;BME280;31345;51.522;10.702;2023-02-23T03:42:27;98683.91;;;5.23;100.00
45621;BME280;31345;51.522;10.702;2023-02-23T03:45:20;98692.66;;;5.38;100.00
45621;BME280;31345;51.522;10.702;2023-02-23T03:48:09;98682.25;;;5.56;100.00
45621;BME280;31345;51.522;10.702;2023-02-23T03:51:05;98681.19;;;5.60;100.00
45621;BME280;31345;51.522;10.702;2023-02-23T03:53:58;98680.13;;;5.46;100.00
45621;BME280;31345;51.522;10.702;2023-02-23T03:56:49;98683.53;;;5.31;100.00
45621;BME280;31345;51.522;10.702;2023-02-23T03:59:45;98681.16;;;5.26;100.00
45621;BME280;31345;51.522;10.702;2023-02-23T04:02:47;98679.16;;;5.49;100.00
45621;BME280;31345;51.522;10.702;2023-02-23T04:05:40;98680.81;;;5.50;100.00
45621;BME280;31345;51.522;10.702;2023-02-23T04:08:34;98679.22;;;5.47;100.00
45621;BME280;31345;51.522;10.702;2023-02-23T04:11:29;98679.22;;;5.47;100.00
45621;BME280;31345;51.522;10.702;2023-02-23T04:14:17;98683.41;;;5.32;100.00
45621;BME280;31345;51.522;10.702;2023-02-23T04:16:47;98679.50;;;5.25;100.00
45621;BME280;31345;51.522;10.702;2023-02-23T04:19:18;98672.28;;;5.48;100.00
45621;BME280;31345;51.522;10.702;2023-02-23T04:21:46;98675.31;;;5.56;100.00
45621;BME280;31345;51.522;10.702;2023-02-23T04:24:14;98675.28;;;5.40;100.00
45621;BME280;31345;51.522;10.702;2023-02-23T04:26:41;98674.59;;;5.36;100.00
45621;BME280;31345;51.522;10.702;2023-02-23T04:29:14;98672.69;;;5.40;100.00
45621;BME280;31345;51.522;10.702;2023-02-23T04:31:41;98680.59;;;5.55;100.00
45621;BME280;31345;51.522;10.702;2023-02-23T04:34:10;98674.47;;;5.56;100.00
45621;BME280;31345;51.522;10.702;2023-02-23T04:36:44;98675.28;;;5.40;100.00
45621;BME280;31345;51.522;10.702;2023-02-23T04:39:12;98682.53;;;5.33;100.00
45621;BME280;31345;51.522;10.702;2023-02-23T04:41:45;98681.31;;;5.41;100.00
45621;BME280;31345;51.522;10.702;2023-02-23T04:44:14;98676.22;;;5.55;100.00
45621;BME280;31345;51.522;10.702;2023-02-23T04:46:41;98681.56;;;5.52;100.00
45621;BME280;31345;51.522;10.702;2023-02-23T04:49:15;98677.22;;;5.53;100.00
45621;BME280;31345;51.522;10.702;2023-02-23T04:51:43;98672.53;;;5.43;100.00
45621;BME280;31345;51.522;10.702;2023-02-23T04:54:15;98678.59;;;5.42;100.00
45621;BME280;31345;51.522;10.702;2023-02-23T04:56:48;98677.50;;;5.30;100.00
45621;BME280;31345;51.522;10.702;2023-02-23T04:59:21;98671.59;;;5.44;100.00
45621;BME280;31345;51.522;10.702;2023-02-23T05:01:48;98675.34;;;5.39;100.00
45621;BME280;31345;51.522;10.702;2023-02-23T05:04:17;98676.72;;;5.46;100.00
45621;BME280;31345;51.522;10.702;2023-02-23T05:06:49;98675.19;;;5.42;100.00
45621;BME280;31345;51.522;10.702;2023-02-23T05:09:22;98681.75;;;5.31;100.00
45621;BME280;31345;51.522;10.702;2023-02-23T05:11:55;98679.63;;;5.22;100.00
45621;BME280;31345;51.522;10.702;2023-02-23T05:14:27;98683.53;;;4.95;100.00
45621;BME280;31345;51.522;10.702;2023-02-23T05:17:00;98680.34;;;5.08;100.00
45621;BME280;31345;51.522;10.702;2023-02-23T05:19:34;98683.06;;;5.22;100.00
45621;BME280;31345;51.522;10.702;2023-02-23T05:22:07;98683.28;;;5.35;100.00
45621;BME280;31345;51.522;10.702;2023-02-23T05:24:42;98677.09;;;5.38;100.00
45621;BME280;31345;51.522;10.702;2023-02-23T05:27:15;98674.41;;;5.40;100.00
45621;BME280;31345;51.522;10.702;2023-02-23T05:29:42;98687.47;;;5.38;100.00
45621;BME280;31345;51.522;10.702;2023-02-23T05:32:15;98680.06;;;5.48;100.00
45621;BME280;31345;51.522;10.702;2023-02-23T05:34:44;98682.75;;;5.29;100.00
45621;BME280;31345;51.522;10.702;2023-02-23T05:37:17;98691.75;;;5.21;100.00
45621;BME280;31345;51.522;10.702;2023-02-23T05:39:50;98695.03;;;5.25;100.00
45621;BME280;31345;51.522;10.702;2023-02-23T05:42:22;98689.47;;;5.33;100.00
45621;BME280;31345;51.522;10.702;2023-02-23T05:44:55;98691.06;;;5.18;100.00
45621;BME280;31345;51.522;10.702;2023-02-23T05:47:27;98692.88;;;5.16;100.00
45621;BME280;31345;51.522;10.702;2023-02-23T05:50:01;98688.19;;;5.06;100.00
45621;BME280;31345;51.522;10.702;2023-02-23T05:52:29;98700.81;;;5.30;100.00
45621;BME280;31345;51.522;10.702;2023-02-23T05:54:57;98687.72;;;5.33;100.00
45621;BME280;31345;51.522;10.702;2023-02-23T05:57:30;98699.59;;;5.20;100.00
45621;BME280;31345;51.522;10.702;2023-02-23T05:59:57;98702.38;;;5.17;100.00
45621;BME280;31345;51.522;10.702;2023-02-23T06:02:25;98703.19;;;5.17;100.00
45621;BME280;31345;51.522;10.702;2023-02-23T06:04:52;98705.72;;;5.01;100.00
45621;BME280;31345;51.522;10.702;2023-02-23T06:07:27;98704.78;;;5.02;100.00
45621;BME280;31345;51.522;10.702;2023-02-23T06:09:55;98698.31;;;4.93;100.00
45621;BME280;31345;51.522;10.702;2023-02-23T06:12:27;98703.94;;;5.02;100.00
45621;BME280;31345;51.522;10.702;2023-02-23T06:15:00;98703.88;;;5.03;100.00
45621;BME280;31345;51.522;10.702;2023-02-23T06:17:32;98711.44;;;5.08;100.00
45621;BME280;31345;51.522;10.702;2023-02-23T06:20:05;98713.16;;;4.90;100.00
45621;BME280;31345;51.522;10.702;2023-02-23T06:22:42;98717.81;;;4.83;100.00
45621;BME280;31345;51.522;10.702;2023-02-23T06:25:14;98722.34;;;4.78;100.00
45621;BME280;31345;51.522;10.702;2023-02-23T06:27:47;98724.72;;;4.82;100.00
45621;BME280;31345;51.522;10.702;2023-02-23T06:30:14;98719.41;;;4.85;100.00
45621;BME280;31345;51.522;10.702;2023-02-23T06:32:42;98722.47;;;4.94;100.00
45621;BME280;31345;51.522;10.702;2023-02-23T06:35:19;98718.75;;;5.00;100.00
45621;BME280;31345;51.522;10.702;2023-02-23T06:37:53;98719.66;;;4.98;100.00
45621;BME280;31345;51.522;10.702;2023-02-23T06:40:26;98728.56;;;4.93;100.00
45621;BME280;31345;51.522;10.702;2023-02-23T06:42:58;98724.22;;;4.93;100.00
45621;BME280;31345;51.522;10.702;2023-02-23T06:45:33;98727.50;;;4.97;100.00
45621;BME280;31345;51.522;10.702;2023-02-23T06:48:06;98729.31;;;4.95;100.00
45621;BME280;31345;51.522;10.702;2023-02-23T06:50:38;98722.53;;;5.10;100.00
45621;BME280;31345;51.522;10.702;2023-02-23T06:53:12;98724.16;;;5.13;100.00
45621;BME280;31345;51.522;10.702;2023-02-23T06:55:45;98727.97;;;5.23;100.00
45621;BME280;31345;51.522;10.702;2023-02-23T06:58:17;98729.41;;;5.29;100.00
45621;BME280;31345;51.522;10.702;2023-02-23T07:00:50;98729.78;;;5.39;100.00
45621;BME280;31345;51.522;10.702;2023-02-23T07:03:25;98732.91;;;5.45;100.00
45621;BME280;31345;51.522;10.702;2023-02-23T07:05:57;98736.28;;;5.47;100.00
45621;BME280;31345;51.522;10.702;2023-02-23T07:08:31;98736.66;;;5.57;100.00
45621;BME280;31345;51.522;10.702;2023-02-23T07:11:05;98739.69;;;5.66;100.00
45621;BME280;31345;51.522;10.702;2023-02-23T07:13:38;98734.66;;;5.62;100.00
45621;BME280;31345;51.522;10.702;2023-02-23T07:16:11;98732.72;;;5.66;100.00
45621;BME280;31345;51.522;10.702;2023-02-23T07:18:44;98740.72;;;5.79;100.00
45621;BME280;31345;51.522;10.702;2023-02-23T07:21:17;98735.16;;;5.87;100.00
45621;BME280;31345;51.522;10.702;2023-02-23T07:23:46;98742.75;;;5.90;100.00
45621;BME280;31345;51.522;10.702;2023-02-23T07:26:20;98741.94;;;5.89;100.00
45621;BME280;31345;51.522;10.702;2023-02-23T07:28:52;98745.34;;;5.90;100.00
45621;BME280;31345;51.522;10.702;2023-02-23T07:31:20;98738.91;;;5.97;100.00
45621;BME280;31345;51.522;10.702;2023-02-23T07:33:52;98740.59;;;5.98;100.00
45621;BME280;31345;51.522;10.702;2023-02-23T07:36:25;98743.53;;;6.08;100.00
45621;BME280;31345;51.522;10.702;2023-02-23T07:38:59;98747.75;;;6.11;100.00
45621;BME280;31345;51.522;10.702;2023-02-23T07:41:27;98745.50;;;6.21;100.00
45621;BME280;31345;51.522;10.702;2023-02-23T07:43:59;98747.16;;;6.22;100.00
45621;BME280;31345;51.522;10.702;2023-02-23T07:46:32;98744.16;;;6.30;100.00
45621;BME280;31345;51.522;10.702;2023-02-23T07:49:05;98746.59;;;6.33;100.00
45621;BME280;31345;51.522;10.702;2023-02-23T07:51:38;98749.28;;;6.47;100.00
45621;BME280;31345;51.522;10.702;2023-02-23T07:54:07;98749.94;;;6.51;100.00
45621;BME280;31345;51.522;10.702;2023-02-23T07:56:39;98751.22;;;6.60;100.00
45621;BME280;31345;51.522;10.702;2023-02-23T07:59:12;98737.13;;;6.64;100.00
45621;BME280;31345;51.522;10.702;2023-02-23T08:01:44;98742.97;;;6.68;100.00
45621;BME280;31345;51.522;10.702;2023-02-23T08:04:12;98746.84;;;6.76;100.00
45621;BME280;31345;51.522;10.702;2023-02-23T08:06:39;98750.09;;;6.80;100.00
45621;BME280;31345;51.522;10.702;2023-02-23T08:09:13;98753.94;;;6.89;100.00
45621;BME280;31345;51.522;10.702;2023-02-23T08:11:41;98754.44;;;6.96;100.00
45621;BME280;31345;51.522;10.702;2023-02-23T08:14:14;98748.41;;;6.95;100.00
45621;BME280;31345;51.522;10.702;2023-02-23T08:16:46;98751.66;;;6.99;100.00
45621;BME280;31345;51.522;10.702;2023-02-23T08:19:19;98756.22;;;6.95;100.00
45621;BME280;31345;51.522;10.702;2023-02-23T08:21:48;98751.56;;;7.00;100.00
45621;BME280;31345;51.522;10.702;2023-02-23T08:24:23;98752.91;;;7.08;100.00
45621;BME280;31345;51.522;10.702;2023-02-23T08:26:56;98754.56;;;7.09;100.00
45621;BME280;31345;51.522;10.702;2023-02-23T08:29:29;98762.84;;;7.15;100.00
45621;BME280;31345;51.522;10.702;2023-02-23T08:31:56;98759.75;;;7.25;100.00
45621;BME280;31345;51.522;10.702;2023-02-23T08:34:24;98765.94;;;7.53;100.00
45621;BME280;31345;51.522;10.702;2023-02-23T08:36:52;98766.94;;;7.50;100.00
45621;BME280;31345;51.522;10.702;2023-02-23T08:39:26;98761.94;;;7.47;100.00
45621;BME280;31345;51.522;10.702;2023-02-23T08:41:53;98769.75;;;7.47;100.00
45621;BME280;31345;51.522;10.702;2023-02-23T08:44:26;98766.47;;;7.43;100.00
45621;BME280;31345;51.522;10.702;2023-02-23T08:46:53;98771.25;;;7.51;100.00
45621;BME280;31345;51.522;10.702;2023-02-23T08:49:28;98773.97;;;7.64;100.00
45621;BME280;31345;51.522;10.702;2023-02-23T08:52:02;98773.16;;;7.64;100.00
45621;BME280;31345;51.522;10.702;2023-02-23T08:54:36;98773.22;;;7.62;100.00
45621;BME280;31345;51.522;10.702;2023-02-23T08:57:09;98777.78;;;7.73;100.00
45621;BME280;31345;51.522;10.702;2023-02-23T08:59:42;98778.47;;;7.77;100.00
45621;BME280;31345;51.522;10.702;2023-02-23T09:02:14;98774.84;;;7.79;100.00
45621;BME280;31345;51.522;10.702;2023-02-23T09:04:47;98778.94;;;7.84;100.00
45621;BME280;31345;51.522;10.702;2023-02-23T09:07:21;98777.53;;;7.92;100.00
45621;BME280;31345;51.522;10.702;2023-02-23T09:09:57;98779.59;;;8.02;100.00
45621;BME280;31345;51.522;10.702;2023-02-23T09:12:30;98778.19;;;8.11;100.00
45621;BME280;31345;51.522;10.702;2023-02-23T09:14:57;98778.75;;;8.16;100.00
45621;BME280;31345;51.522;10.702;2023-02-23T09:17:25;98779.13;;;8.24;100.00
45621;BME280;31345;51.522;10.702;2023-02-23T09:19:57;98782.28;;;8.29;100.00
45621;BME280;31345;51.522;10.702;2023-02-23T09:22:30;98783.84;;;8.46;100.00
45621;BME280;31345;51.522;10.702;2023-02-23T09:25:07;98776.56;;;8.52;100.00
45621;BME280;31345;51.522;10.702;2023-02-23T09:27:43;98777.97;;;8.57;100.00
45621;BME280;31345;51.522;10.702;2023-02-23T09:30:16;98781.00;;;8.64;100.00
45621;BME280;31345;51.522;10.702;2023-02-23T09:32:45;98780.44;;;8.73;100.00
45621;BME280;31345;51.522;10.702;2023-02-23T09:35:13;98787.75;;;8.81;100.00
45621;BME280;31345;51.522;10.702;2023-02-23T09:37:50;98785.69;;;8.86;100.00
45621;BME280;31345;51.522;10.702;2023-02-23T09:40:22;98786.03;;;8.95;100.00
45621;BME280;31345;51.522;10.702;2023-02-23T09:42:59;98792.84;;;8.97;100.00
45621;BME280;31345;51.522;10.702;2023-02-23T09:45:38;98787.84;;;8.94;100.00
45621;BME280;31345;51.522;10.702;2023-02-23T09:48:15;98795.38;;;8.99;100.00
45621;BME280;31345;51.522;10.702;2023-02-23T09:50:51;98791.91;;;8.98;100.00
45621;BME280;31345;51.522;10.702;2023-02-23T09:53:36;98798.34;;;8.93;100.00
45621;BME280;31345;51.522;10.702;2023-02-23T09:56:15;98798.34;;;8.93;100.00
45621;BME280;31345;51.522;10.702;2023-02-23T09:58:50;98799.31;;;9.05;100.00
45621;BME280;31345;51.522;10.702;2023-02-23T10:01:52;98797.75;;;9.02;100.00
45621;BME280;31345;51.522;10.702;2023-02-23T10:04:30;98787.66;;;9.10;100.00
45621;BME280;31345;51.522;10.702;2023-02-23T10:07:02;98787.09;;;9.20;100.00
45621;BME280;31345;51.522;10.702;2023-02-23T10:09:55;98789.94;;;9.30;100.00
45621;BME280;31345;51.522;10.702;2023-02-23T10:12:31;98784.31;;;9.49;100.00
45621;BME280;31345;51.522;10.702;2023-02-23T10:15:18;98782.09;;;9.43;100.00
45621;BME280;31345;51.522;10.702;2023-02-23T10:17:59;98794.38;;;9.55;100.00
45621;BME280;31345;51.522;10.702;2023-02-23T10:20:36;98788.09;;;9.71;100.00
45621;BME280;31345;51.522;10.702;2023-02-23T10:23:09;98785.84;;;9.79;100.00
45621;BME280;31345;51.522;10.702;2023-02-23T10:25:43;98789.06;;;9.83;100.00
45621;BME280;31345;51.522;10.702;2023-02-23T10:28:20;98790.09;;;9.80;100.00
45621;BME280;31345;51.522;10.702;2023-02-23T10:30:49;98789.16;;;9.94;100.00
45621;BME280;31345;51.522;10.702;2023-02-23T10:33:29;98789.97;;;9.95;100.00
45621;BME280;31345;51.522;10.702;2023-02-23T10:36:11;98781.38;;;10.07;100.00
45621;BME280;31345;51.522;10.702;2023-02-23T10:38:40;98783.53;;;10.13;100.00
45621;BME280;31345;51.522;10.702;2023-02-23T10:41:12;98787.81;;;10.27;100.00
45621;BME280;31345;51.522;10.702;2023-02-23T10:43:47;98783.03;;;10.08;100.00
45621;BME280;31345;51.522;10.702;2023-02-23T10:46:21;98794.41;;;10.20;100.00
45621;BME280;31345;51.522;10.702;2023-02-23T10:48:56;98779.88;;;10.16;100.00
45621;BME280;31345;51.522;10.702;2023-02-23T10:51:35;98792.13;;;10.16;100.00
45621;BME280;31345;51.522;10.702;2023-02-23T10:54:34;98783.84;;;10.22;100.00
45621;BME280;31345;51.522;10.702;2023-02-23T10:57:03;98776.09;;;10.33;100.00
45621;BME280;31345;51.522;10.702;2023-02-23T10:59:33;98782.97;;;10.34;100.00
45621;BME280;31345;51.522;10.702;2023-02-23T11:02:20;98780.66;;;10.43;100.00
45621;BME280;31345;51.522;10.702;2023-02-23T11:04:55;98777.94;;;10.44;100.00
45621;BME280;31345;51.522;10.702;2023-02-23T11:07:30;98774.91;;;10.50;100.00
45621;BME280;31345;51.522;10.702;2023-02-23T11:09:59;98775.47;;;10.67;100.00
45621;BME280;31345;51.522;10.702;2023-02-23T11:12:49;98770.22;;;10.80;100.00
45621;BME280;31345;51.522;10.702;2023-02-23T11:15:28;98771.53;;;10.61;100.00
45621;BME280;31345;51.522;10.702;2023-02-23T11:18:02;98759.16;;;10.39;100.00
45621;BME280;31345;51.522;10.702;2023-02-23T11:20:33;98767.66;;;10.67;100.00
45621;BME280;31345;51.522;10.702;2023-02-23T11:23:08;98759.22;;;10.75;100.00
45621;BME280;31345;51.522;10.702;2023-02-23T11:25:42;98763.00;;;10.46;100.00
45621;BME280;31345;51.522;10.702;2023-02-23T11:28:16;98761.56;;;10.66;100.00
45621;BME280;31345;51.522;10.702;2023-02-23T11:30:52;98757.59;;;10.61;100.00
45621;BME280;31345;51.522;10.702;2023-02-23T11:33:23;98767.97;;;10.62;100.00
45621;BME280;31345;51.522;10.702;2023-02-23T11:35:57;98754.94;;;10.49;100.00
45621;BME280;31345;51.522;10.702;2023-02-23T11:38:30;98752.75;;;10.43;100.00
45621;BME280;31345;51.522;10.702;2023-02-23T11:41:05;98757.50;;;10.25;100.00
45621;BME280;31345;51.522;10.702;2023-02-23T11:43:36;98748.72;;;10.26;100.00
45621;BME280;31345;51.522;10.702;2023-02-23T11:46:10;98749.47;;;10.28;100.00
45621;BME280;31345;51.522;10.702;2023-02-23T11:48:48;98750.31;;;10.53;100.00
45621;BME280;31345;51.522;10.702;2023-02-23T11:51:24;98746.47;;;10.46;100.00
45621;BME280;31345;51.522;10.702;2023-02-23T11:53:59;98748.66;;;10.52;100.00
45621;BME280;31345;51.522;10.702;2023-02-23T11:56:34;98746.66;;;10.56;100.00
45621;BME280;31345;51.522;10.702;2023-02-23T11:59:15;98740.25;;;10.35;100.00
45621;BME280;31345;51.522;10.702;2023-02-23T12:01:53;98739.19;;;10.38;100.00
45621;BME280;31345;51.522;10.702;2023-02-23T12:04:29;98746.09;;;10.39;100.00
45621;BME280;31345;51.522;10.702;2023-02-23T12:07:23;98740.66;;;10.29;100.00
45621;BME280;31345;51.522;10.702;2023-02-23T12:09:58;98737.94;;;10.31;100.00
45621;BME280;31345;51.522;10.702;2023-02-23T12:12:36;98731.97;;;10.28;100.00
45621;BME280;31345;51.522;10.702;2023-02-23T12:15:13;98727.41;;;10.19;100.00
45621;BME280;31345;51.522;10.702;2023-02-23T12:17:50;98727.69;;;10.40;100.00
45621;BME280;31345;51.522;10.702;2023-02-23T12:20:27;98727.03;;;10.50;100.00
45621;BME280;31345;51.522;10.702;2023-02-23T12:23:04;98732.97;;;10.52;100.00
45621;BME280;31345;51.522;10.702;2023-02-23T12:25:41;98734.38;;;10.45;100.00
45621;BME280;31345;51.522;10.702;2023-02-23T12:28:21;98721.84;;;10.61;100.00
45621;BME280;31345;51.522;10.702;2023-02-23T12:31:00;98732.13;;;10.51;100.00
45621;BME280;31345;51.522;10.702;2023-02-23T12:33:33;98728.25;;;10.57;100.00
45621;BME280;31345;51.522;10.702;2023-02-23T12:36:15;98733.81;;;10.52;100.00
45621;BME280;31345;51.522;10.702;2023-02-23T12:38:56;98731.53;;;10.48;100.00
45621;BME280;31345;51.522;10.702;2023-02-23T12:41:35;98731.28;;;10.51;100.00
45621;BME280;31345;51.522;10.702;2023-02-23T12:44:10;98738.53;;;10.47;100.00
45621;BME280;31345;51.522;10.702;2023-02-23T12:46:47;98731.56;;;10.35;100.00
45621;BME280;31345;51.522;10.702;2023-02-23T12:49:29;98738.16;;;10.27;100.00
45621;BME280;31345;51.522;10.702;2023-02-23T12:52:09;98731.59;;;10.09;100.00
45621;BME280;31345;51.522;10.702;2023-02-23T12:54:40;98730.88;;;10.07;100.00
45621;BME280;31345;51.522;10.702;2023-02-23T12:57:16;98731.16;;;10.02;100.00
45621;BME280;31345;51.522;10.702;2023-02-23T13:00:27;98729.84;;;9.83;100.00
45621;BME280;31345;51.522;10.702;2023-02-23T13:03:39;98725.34;;;9.85;100.00
45621;BME280;31345;51.522;10.702;2023-02-23T13:06:19;98723.69;;;9.84;100.00
45621;BME280;31345;51.522;10.702;2023-02-23T13:09:00;98734.56;;;10.04;100.00
45621;BME280;31345;51.522;10.702;2023-02-23T13:11:48;98730.47;;;10.00;100.00
45621;BME280;31345;51.522;10.702;2023-02-23T13:14:28;98721.47;;;9.91;100.00
45621;BME280;31345;51.522;10.702;2023-02-23T13:17:02;98725.25;;;9.74;100.00
45621;BME280;31345;51.522;10.702;2023-02-23T13:19:36;98722.84;;;9.71;100.00
45621;BME280;31345;51.522;10.702;2023-02-23T13:22:23;98729.53;;;9.62;100.00
45621;BME280;31345;51.522;10.702;2023-02-23T13:24:59;98729.34;;;9.65;100.00
45621;BME280;31345;51.522;10.702;2023-02-23T13:27:33;98731.31;;;9.61;100.00
45621;BME280;31345;51.522;10.702;2023-02-23T13:30:09;98720.84;;;9.61;100.00
45621;BME280;31345;51.522;10.702;2023-02-23T13:32:42;98723.47;;;9.61;100.00
45621;BME280;31345;51.522;10.702;2023-02-23T13:35:16;98723.38;;;9.63;100.00
45621;BME280;31345;51.522;10.702;2023-02-23T13:37:53;98716.50;;;9.62;100.00
45621;BME280;31345;51.522;10.702;2023-02-23T13:40:30;98721.28;;;9.68;100.00